createdAt,value
2022-07-29T00:00:31.124Z,96302.38
2022-07-29T00:02:59.043Z,96309.13
2022-07-29T00:05:27.830Z,96311.78
2022-07-29T00:07:57.865Z,96314.00
2022-07-29T00:10:27.327Z,96304.41
2022-07-29T00:12:56.536Z,96299.84
2022-07-29T00:15:24.208Z,96297.81
2022-07-29T00:17:51.398Z,96291.00
2022-07-29T00:20:19.819Z,96292.47
2022-07-29T00:22:47.167Z,96261.03
2022-07-29T00:25:14.326Z,96255.56
2022-07-29T00:27:43.978Z,96265.81
2022-07-29T00:30:12.698Z,96274.22
2022-07-29T00:32:40.302Z,96268.72
2022-07-29T00:35:29.153Z,96269.34
2022-07-29T00:37:56.765Z,96280.19
2022-07-29T00:40:25.855Z,96284.56
2022-07-29T00:42:54.269Z,96284.53
2022-07-29T00:45:23.080Z,96282.31
2022-07-29T00:47:53.497Z,96280.38
2022-07-29T00:50:20.142Z,96280.78
2022-07-29T00:52:48.454Z,96279.69
2022-07-29T00:55:17.925Z,96290.75
2022-07-29T00:57:45.577Z,96290.53
2022-07-29T01:00:15.741Z,96288.75
2022-07-29T01:02:47.021Z,96287.59
2022-07-29T01:05:17.751Z,96286.56
2022-07-29T01:07:47.386Z,96282.91
2022-07-29T01:10:15.987Z,96292.63
2022-07-29T01:12:44.675Z,96290.63
2022-07-29T01:15:12.017Z,96291.00
2022-07-29T01:17:53.678Z,96288.75
2022-07-29T01:20:34.235Z,96285.47
2022-07-29T01:23:38.336Z,96281.59
2022-07-29T01:26:40.050Z,96273.94
2022-07-29T01:29:38.886Z,96274.84
2022-07-29T01:32:22.551Z,96266.09
2022-07-29T01:35:23.333Z,96262.59
2022-07-29T01:37:59.993Z,96260.47
2022-07-29T01:40:41.954Z,96262.06
2022-07-29T01:43:16.598Z,96253.00
2022-07-29T01:45:49.194Z,96254.66
2022-07-29T01:48:19.588Z,96255.75
2022-07-29T01:51:21.591Z,96244.78
2022-07-29T01:53:59.496Z,96248.88
2022-07-29T01:56:30.926Z,96246.88
2022-07-29T01:58:58.372Z,96240.75
2022-07-29T02:01:26.334Z,96239.66
2022-07-29T02:03:56.320Z,96243.22
2022-07-29T02:06:24.604Z,96231.44
2022-07-29T02:08:52.557Z,96236.94
2022-07-29T02:11:19.955Z,96235.78
2022-07-29T02:13:49.994Z,96231.19
2022-07-29T02:16:20.111Z,96233.69
2022-07-29T02:18:51.556Z,96226.09
2022-07-29T02:21:24.174Z,96226.72
2022-07-29T02:23:54.123Z,96232.28
2022-07-29T02:26:24.275Z,96228.34
2022-07-29T02:28:53.505Z,96232.91
2022-07-29T02:31:26.736Z,96240.75
2022-07-29T02:33:57.210Z,96226.47
2022-07-29T02:36:28.222Z,96225.44
2022-07-29T02:38:58.765Z,96228.19
2022-07-29T02:41:36.744Z,96220.41
2022-07-29T02:44:16.000Z,96215.66
2022-07-29T02:47:02.751Z,96214.69
2022-07-29T02:49:35.491Z,96216.94
2022-07-29T02:52:14.322Z,96208.00
2022-07-29T02:54:58.012Z,96205.09
2022-07-29T02:57:35.208Z,96215.81
2022-07-29T03:00:06.821Z,96211.44
2022-07-29T03:02:41.411Z,96215.41
2022-07-29T03:05:10.719Z,96210.50
2022-07-29T03:07:38.099Z,96208.59
2022-07-29T03:10:10.946Z,96211.63
2022-07-29T03:12:41.370Z,96217.66
2022-07-29T03:15:09.324Z,96227.22
2022-07-29T03:17:38.055Z,96228.19
2022-07-29T03:20:05.563Z,96229.41
2022-07-29T03:22:33.752Z,96227.19
2022-07-29T03:25:09.080Z,96222.03
2022-07-29T03:27:37.331Z,96226.34
2022-07-29T03:30:06.067Z,96223.28
2022-07-29T03:32:36.979Z,96222.03
2022-07-29T03:35:07.582Z,96226.22
2022-07-29T03:37:34.581Z,96236.47
2022-07-29T03:40:04.617Z,96239.56
2022-07-29T03:42:34.485Z,96236.69
2022-07-29T03:45:04.712Z,96240.88
2022-07-29T03:47:50.175Z,96232.97
2022-07-29T03:50:20.252Z,96226.28
2022-07-29T03:52:49.575Z,96222.97
2022-07-29T03:55:17.013Z,96227.03
2022-07-29T03:57:46.114Z,96226.81
2022-07-29T04:00:16.394Z,96225.97
2022-07-29T04:02:50.401Z,96224.31
2022-07-29T04:05:18.521Z,96212.56
2022-07-29T04:07:47.529Z,96217.63
2022-07-29T04:10:16.467Z,96214.28
2022-07-29T04:12:44.706Z,96219.28
2022-07-29T04:15:12.811Z,96221.31
2022-07-29T04:17:39.583Z,96221.84
2022-07-29T04:20:07.079Z,96221.84
2022-07-29T04:22:35.296Z,96223.56
2022-07-29T04:25:04.142Z,96226.50
2022-07-29T04:27:33.051Z,96229.19
2022-07-29T04:30:02.386Z,96234.66
2022-07-29T04:32:30.984Z,96242.38
2022-07-29T04:34:59.575Z,96244.41
2022-07-29T04:37:29.166Z,96241.06
2022-07-29T04:39:56.130Z,96248.81
2022-07-29T04:42:29.261Z,96249.59
2022-07-29T04:44:59.339Z,96254.88
2022-07-29T04:47:31.566Z,96256.88
2022-07-29T04:49:59.584Z,96256.69
2022-07-29T04:52:27.644Z,96257.59
2022-07-29T04:54:55.355Z,96248.63
2022-07-29T04:57:24.661Z,96250.69
2022-07-29T04:59:54.628Z,96256.44
2022-07-29T05:02:24.106Z,96264.97
2022-07-29T05:04:54.086Z,96269.25
2022-07-29T05:07:21.081Z,96263.28
2022-07-29T05:09:49.633Z,96259.28
2022-07-29T05:12:16.812Z,96258.66
2022-07-29T05:14:44.779Z,96266.41
2022-07-29T05:17:13.136Z,96260.94
2022-07-29T05:19:40.675Z,96269.75
2022-07-29T05:22:09.238Z,96268.13
2022-07-29T05:24:37.322Z,96255.25
2022-07-29T05:27:05.605Z,96257.09
2022-07-29T05:29:45.042Z,96258.78
2022-07-29T05:32:13.574Z,96267.06
2022-07-29T05:34:51.291Z,96272.22
2022-07-29T05:37:21.662Z,96264.91
2022-07-29T05:39:50.379Z,96272.31
2022-07-29T05:42:25.348Z,96268.25
2022-07-29T05:44:53.476Z,96277.41
2022-07-29T05:47:22.295Z,96276.91
2022-07-29T05:49:49.764Z,96278.91
2022-07-29T05:52:17.520Z,96274.69
2022-07-29T05:54:45.603Z,96275.09
2022-07-29T05:57:20.995Z,96281.47
2022-07-29T05:59:48.361Z,96285.28
2022-07-29T06:02:16.480Z,96284.78
2022-07-29T06:04:46.138Z,96279.34
2022-07-29T06:07:14.256Z,96291.06
2022-07-29T06:09:42.247Z,96288.84
2022-07-29T06:12:10.396Z,96285.44
2022-07-29T06:14:39.452Z,96290.66
2022-07-29T06:17:07.959Z,96291.00
2022-07-29T06:19:37.408Z,96295.09
2022-07-29T06:22:06.180Z,96293.66
2022-07-29T06:24:33.792Z,96283.56
2022-07-29T06:27:06.073Z,96290.25
2022-07-29T06:29:33.710Z,96294.72
2022-07-29T06:32:01.510Z,96297.28
2022-07-29T06:34:32.237Z,96291.44
2022-07-29T06:37:03.733Z,96287.81
2022-07-29T06:39:31.327Z,96288.91
2022-07-29T06:42:00.734Z,96290.34
2022-07-29T06:44:31.980Z,96293.56
2022-07-29T06:47:01.252Z,96298.63
2022-07-29T06:49:29.536Z,96305.72
2022-07-29T06:51:59.627Z,96312.94
2022-07-29T06:54:27.176Z,96312.13
2022-07-29T06:56:56.564Z,96304.88
2022-07-29T06:59:32.199Z,96300.41
2022-07-29T07:02:04.600Z,96312.75
2022-07-29T07:04:33.415Z,96313.53
2022-07-29T07:07:00.641Z,96309.06
2022-07-29T07:09:39.956Z,96307.75
2022-07-29T07:12:07.628Z,96316.84
2022-07-29T07:14:35.505Z,96310.94
2022-07-29T07:17:04.882Z,96322.19
2022-07-29T07:19:32.587Z,96314.88
2022-07-29T07:22:00.554Z,96322.53
2022-07-29T07:24:28.749Z,96325.34
2022-07-29T07:26:56.488Z,96310.88
2022-07-29T07:29:23.369Z,96324.78
2022-07-29T07:31:50.263Z,96326.19
2022-07-29T07:34:17.630Z,96320.75
2022-07-29T07:36:57.072Z,96320.00
2022-07-29T07:39:26.976Z,96320.66
2022-07-29T07:41:54.435Z,96321.09
2022-07-29T07:44:22.854Z,96324.97
2022-07-29T07:46:50.338Z,96322.72
2022-07-29T07:49:17.258Z,96315.69
2022-07-29T07:51:50.657Z,96315.97
2022-07-29T07:54:20.819Z,96313.53
2022-07-29T07:56:49.977Z,96314.84
2022-07-29T07:59:20.077Z,96296.66
2022-07-29T08:01:55.517Z,96297.41
2022-07-29T08:04:28.711Z,96316.44
2022-07-29T08:06:58.362Z,96306.91
2022-07-29T08:09:29.679Z,96313.56
2022-07-29T08:12:00.295Z,96315.69
2022-07-29T08:14:29.476Z,96313.59
2022-07-29T08:16:57.645Z,96316.19
2022-07-29T08:19:25.208Z,96303.50
2022-07-29T08:21:54.803Z,96302.06
2022-07-29T08:24:47.053Z,96328.06
2022-07-29T08:27:41.122Z,96328.50
2022-07-29T08:30:09.228Z,96325.13
2022-07-29T08:32:55.506Z,96331.81
2022-07-29T08:35:25.978Z,96326.91
2022-07-29T08:37:54.867Z,96331.16
2022-07-29T08:40:30.498Z,96319.91
2022-07-29T08:43:08.496Z,96333.06
2022-07-29T08:45:51.163Z,96325.91
2022-07-29T08:48:24.870Z,96327.50
2022-07-29T08:50:56.919Z,96328.28
2022-07-29T08:53:30.176Z,96338.97
2022-07-29T08:55:58.964Z,96328.31
2022-07-29T08:58:27.826Z,96328.00
2022-07-29T09:00:56.634Z,96333.94
2022-07-29T09:03:31.485Z,96342.16
2022-07-29T09:06:03.751Z,96340.41
2022-07-29T09:08:33.624Z,96349.19
2022-07-29T09:11:02.418Z,96345.38
2022-07-29T09:13:30.925Z,96351.78
2022-07-29T09:15:57.848Z,96360.06
2022-07-29T09:18:36.685Z,96360.72
2022-07-29T09:21:23.487Z,96348.47
2022-07-29T09:24:13.436Z,96344.44
2022-07-29T09:26:44.235Z,96342.63
2022-07-29T09:29:19.578Z,96345.28
2022-07-29T09:31:48.402Z,96336.53
2022-07-29T09:34:18.402Z,96331.31
2022-07-29T09:36:50.278Z,96334.84
2022-07-29T09:39:35.206Z,96336.44
2022-07-29T09:42:04.924Z,96334.72
2022-07-29T09:44:49.775Z,96341.16
2022-07-29T09:47:19.177Z,96339.84
2022-07-29T09:50:00.899Z,96353.59
2022-07-29T09:52:29.137Z,96342.03
2022-07-29T09:55:09.123Z,96340.09
2022-07-29T09:57:38.006Z,96340.22
2022-07-29T10:00:09.603Z,96342.78
2022-07-29T10:02:47.561Z,96347.03
2022-07-29T10:05:25.902Z,96332.78
2022-07-29T10:07:58.469Z,96341.19
2022-07-29T10:10:30.319Z,96345.75
2022-07-29T10:13:07.196Z,96348.84
2022-07-29T10:15:39.518Z,96359.59
2022-07-29T10:18:07.173Z,96356.91
2022-07-29T10:20:37.161Z,96348.50
2022-07-29T10:23:05.019Z,96351.28
2022-07-29T10:25:32.559Z,96363.84
2022-07-29T10:28:01.393Z,96356.78
2022-07-29T10:30:29.553Z,96362.00
2022-07-29T10:33:18.061Z,96356.59
2022-07-29T10:36:13.125Z,96364.19
2022-07-29T10:39:00.456Z,96379.88
2022-07-29T10:42:01.030Z,96355.06
2022-07-29T10:44:31.268Z,96350.94
2022-07-29T10:47:01.714Z,96347.25
2022-07-29T10:49:31.253Z,96345.19
2022-07-29T10:52:10.358Z,96340.47
2022-07-29T10:54:48.773Z,96345.50
2022-07-29T10:57:53.412Z,96343.41
2022-07-29T11:00:28.717Z,96338.88
2022-07-29T11:02:59.517Z,96338.63
2022-07-29T11:05:39.933Z,96335.16
2022-07-29T11:08:20.297Z,96321.69
2022-07-29T11:10:49.833Z,96327.91
2022-07-29T11:13:54.382Z,96314.19
2022-07-29T11:16:25.041Z,96338.44
2022-07-29T11:19:13.390Z,96355.66
2022-07-29T11:21:55.003Z,96355.06
2022-07-29T11:24:30.128Z,96351.38
2022-07-29T11:27:10.228Z,96354.78
2022-07-29T11:29:41.449Z,96357.88
2022-07-29T11:35:38.432Z,96357.34
2022-07-29T11:38:23.198Z,96363.16
2022-07-29T11:41:18.541Z,96366.19
2022-07-29T11:44:05.190Z,96352.28
2022-07-29T11:46:50.014Z,96353.19
2022-07-29T11:49:22.283Z,96344.06
2022-07-29T11:52:05.589Z,96326.72
2022-07-29T11:54:57.525Z,96342.59
2022-07-29T11:57:36.698Z,96349.44
2022-07-29T12:00:10.050Z,96342.75
2022-07-29T12:05:36.915Z,96347.38
2022-07-29T12:08:17.126Z,96339.69
2022-07-29T12:10:44.990Z,96331.66
2022-07-29T12:13:13.360Z,96333.34
2022-07-29T12:15:47.248Z,96335.72
2022-07-29T12:18:18.515Z,96325.75
2022-07-29T12:20:50.275Z,96325.59
2022-07-29T12:23:22.599Z,96311.03
2022-07-29T12:25:51.102Z,96312.47
2022-07-29T12:28:26.935Z,96320.69
2022-07-29T12:30:55.508Z,96318.44
2022-07-29T12:33:30.553Z,96315.28
2022-07-29T12:36:06.693Z,96302.63
2022-07-29T12:38:37.452Z,96286.97
2022-07-29T12:41:08.286Z,96286.00
2022-07-29T12:43:36.619Z,96281.06
2022-07-29T12:46:14.301Z,96294.44
2022-07-29T12:48:44.053Z,96293.50
2022-07-29T12:51:17.815Z,96316.81
2022-07-29T12:54:05.159Z,96296.00
2022-07-29T12:56:43.671Z,96269.91
2022-07-29T12:59:17.297Z,96272.78
2022-07-29T13:01:52.159Z,96259.72
2022-07-29T13:04:27.496Z,96262.47
2022-07-29T13:07:04.787Z,96257.00
2022-07-29T13:09:43.855Z,96266.00
2022-07-29T13:12:13.719Z,96261.41
2022-07-29T13:14:41.729Z,96248.22
2022-07-29T13:17:24.657Z,96246.13
2022-07-29T13:19:54.251Z,96232.47
2022-07-29T13:22:23.249Z,96258.72
2022-07-29T13:24:55.678Z,96237.03
2022-07-29T13:27:24.970Z,96256.06
2022-07-29T13:29:54.144Z,96256.78
2022-07-29T13:32:28.527Z,96255.63
2022-07-29T13:34:58.127Z,96246.88
2022-07-29T13:37:27.454Z,96261.81
2022-07-29T13:39:55.252Z,96262.38
2022-07-29T13:42:21.970Z,96251.34
2022-07-29T13:44:52.581Z,96250.03
2022-07-29T13:47:20.340Z,96249.81
2022-07-29T13:49:47.341Z,96238.06
2022-07-29T13:52:14.183Z,96241.50
2022-07-29T13:54:42.685Z,96241.22
2022-07-29T13:57:13.662Z,96233.56
2022-07-29T13:59:43.006Z,96237.38
2022-07-29T14:02:10.970Z,96232.25
2022-07-29T14:04:39.565Z,96227.63
2022-07-29T14:07:08.275Z,96229.88
2022-07-29T14:09:41.313Z,96236.41
2022-07-29T14:12:10.727Z,96241.84
2022-07-29T14:14:37.777Z,96227.56
2022-07-29T14:17:07.419Z,96219.00
2022-07-29T14:19:39.863Z,96212.88
2022-07-29T14:22:09.418Z,96208.16
2022-07-29T14:24:41.763Z,96204.59
2022-07-29T14:27:10.275Z,96201.94
2022-07-29T14:29:38.883Z,96216.41
2022-07-29T14:32:11.411Z,96234.25
2022-07-29T14:34:40.592Z,96234.31
2022-07-29T14:37:09.534Z,96232.38
2022-07-29T14:39:44.638Z,96251.06
2022-07-29T14:42:12.535Z,96240.63
2022-07-29T14:44:42.263Z,96232.66
2022-07-29T14:47:10.378Z,96227.19
2022-07-29T14:49:40.115Z,96220.41
2022-07-29T14:52:08.779Z,96237.53
2022-07-29T14:54:37.666Z,96247.97
2022-07-29T14:57:05.499Z,96267.81
2022-07-29T14:59:32.982Z,96274.34
2022-07-29T15:02:03.959Z,96269.56
2022-07-29T15:04:35.719Z,96261.63
2022-07-29T15:07:05.434Z,96262.56
2022-07-29T15:09:33.508Z,96273.03
2022-07-29T15:12:09.006Z,96253.34
2022-07-29T15:14:36.980Z,96269.75
2022-07-29T15:17:04.538Z,96264.31
2022-07-29T15:19:33.900Z,96266.03
2022-07-29T15:22:01.505Z,96263.28
2022-07-29T15:24:29.900Z,96268.34
2022-07-29T15:26:58.297Z,96271.84
2022-07-29T15:29:25.154Z,96266.41
2022-07-29T15:31:51.849Z,96272.72
2022-07-29T15:34:18.656Z,96268.22
2022-07-29T15:36:53.999Z,96273.06
2022-07-29T15:39:21.782Z,96276.22
2022-07-29T15:41:48.710Z,96281.31
2022-07-29T15:44:16.704Z,96262.72
2022-07-29T15:47:03.496Z,96274.50
2022-07-29T15:49:47.971Z,96256.31
2022-07-29T15:52:18.781Z,96248.22
2022-07-29T15:54:47.093Z,96255.69
2022-07-29T15:57:15.556Z,96252.19
2022-07-29T15:59:44.109Z,96259.25
2022-07-29T16:02:11.968Z,96251.69
2022-07-29T16:04:40.406Z,96239.00
2022-07-29T16:07:09.217Z,96252.47
2022-07-29T16:09:37.183Z,96253.41
2022-07-29T16:12:14.733Z,96256.34
2022-07-29T16:14:49.291Z,96252.22
2022-07-29T16:17:17.784Z,96255.25
2022-07-29T16:19:47.084Z,96262.06
2022-07-29T16:22:17.514Z,96257.69
2022-07-29T16:24:45.284Z,96262.19
2022-07-29T16:27:12.443Z,96252.94
2022-07-29T16:29:40.087Z,96243.75
2022-07-29T16:32:07.649Z,96256.34
2022-07-29T16:34:37.367Z,96258.25
2022-07-29T16:37:06.563Z,96263.00
2022-07-29T16:39:36.205Z,96260.44
2022-07-29T16:42:05.562Z,96271.22
2022-07-29T16:44:36.063Z,96274.13
2022-07-29T16:47:03.952Z,96284.19
2022-07-29T16:49:32.312Z,96280.50
2022-07-29T16:52:00.249Z,96296.84
2022-07-29T16:54:27.962Z,96304.97
2022-07-29T16:56:57.195Z,96300.00
2022-07-29T16:59:26.315Z,96305.81
2022-07-29T17:01:54.048Z,96308.31
2022-07-29T17:04:23.912Z,96313.97
2022-07-29T17:06:51.968Z,96315.28
2022-07-29T17:09:21.000Z,96319.59
2022-07-29T17:11:55.913Z,96340.69
2022-07-29T17:14:26.144Z,96320.81
2022-07-29T17:17:01.018Z,96331.59
2022-07-29T17:19:32.404Z,96333.66
2022-07-29T17:22:10.117Z,96339.03
2022-07-29T17:24:41.088Z,96334.25
2022-07-29T17:27:09.384Z,96343.44
2022-07-29T17:29:36.430Z,96353.19
2022-07-29T17:32:03.808Z,96369.28
2022-07-29T17:34:32.721Z,96360.16
2022-07-29T17:37:00.656Z,96347.75
2022-07-29T17:39:27.928Z,96362.00
2022-07-29T17:41:55.495Z,96375.97
2022-07-29T17:44:22.294Z,96383.91
2022-07-29T17:46:50.435Z,96380.38
2022-07-29T17:49:18.555Z,96384.25
2022-07-29T17:51:46.523Z,96383.25
2022-07-29T17:54:13.692Z,96388.44
2022-07-29T17:56:40.400Z,96403.22
2022-07-29T17:59:10.056Z,96387.38
2022-07-29T18:01:40.779Z,96394.31
2022-07-29T18:04:09.487Z,96403.50
2022-07-29T18:06:38.914Z,96396.03
2022-07-29T18:09:07.428Z,96401.31
2022-07-29T18:11:37.371Z,96397.50
2022-07-29T18:14:09.062Z,96412.69
2022-07-29T18:16:38.563Z,96399.03
2022-07-29T18:19:05.452Z,96403.19
2022-07-29T18:21:43.687Z,96412.66
2022-07-29T18:24:18.941Z,96415.22
2022-07-29T18:26:47.438Z,96403.25
2022-07-29T18:29:16.604Z,96419.75
2022-07-29T18:31:44.937Z,96423.50
2022-07-29T18:34:13.949Z,96413.00
2022-07-29T18:36:41.182Z,96415.13
2022-07-29T18:39:09.477Z,96420.97
2022-07-29T18:41:50.005Z,96429.34
2022-07-29T18:44:22.096Z,96432.66
2022-07-29T18:46:52.439Z,96439.31
2022-07-29T18:49:20.446Z,96432.00
2022-07-29T18:51:49.345Z,96430.97
2022-07-29T18:54:21.343Z,96437.72
2022-07-29T18:56:52.042Z,96445.03
2022-07-29T18:59:22.008Z,96448.78
2022-07-29T19:01:53.870Z,96439.13
2022-07-29T19:04:25.509Z,96445.81
2022-07-29T19:06:53.204Z,96443.50
2022-07-29T19:09:20.766Z,96451.81
2022-07-29T19:11:52.995Z,96457.16
2022-07-29T19:14:25.193Z,96457.41
2022-07-29T19:16:51.780Z,96451.34
2022-07-29T19:19:18.680Z,96451.47
2022-07-29T19:21:47.007Z,96457.78
2022-07-29T19:24:15.746Z,96461.41
2022-07-29T19:26:49.575Z,96452.47
2022-07-29T19:29:16.818Z,96469.72
2022-07-29T19:31:43.854Z,96466.59
2022-07-29T19:34:12.167Z,96473.53
2022-07-29T19:36:40.884Z,96469.81
2022-07-29T19:39:07.758Z,96467.84
2022-07-29T19:41:35.430Z,96480.66
2022-07-29T19:44:02.313Z,96489.91
2022-07-29T19:46:29.172Z,96487.41
2022-07-29T19:48:58.058Z,96476.31
2022-07-29T19:51:26.950Z,96479.72
2022-07-29T19:53:53.949Z,96474.03
2022-07-29T19:56:25.263Z,96476.84
2022-07-29T19:58:56.109Z,96483.13
2022-07-29T20:01:34.606Z,96479.41
2022-07-29T20:04:04.700Z,96485.41
2022-07-29T20:06:32.424Z,96475.16
2022-07-29T20:09:00.284Z,96489.91
2022-07-29T20:11:29.573Z,96479.66
2022-07-29T20:13:57.283Z,96484.78
2022-07-29T20:16:25.447Z,96486.63
2022-07-29T20:18:52.203Z,96493.94
2022-07-29T20:21:21.130Z,96493.78
2022-07-29T20:23:50.580Z,96486.31
2022-07-29T20:26:18.340Z,96483.81
2022-07-29T20:28:49.695Z,96485.25
2022-07-29T20:31:17.303Z,96492.22
2022-07-29T20:33:45.811Z,96481.81
2022-07-29T20:36:14.805Z,96487.94
2022-07-29T20:38:45.370Z,96490.44
2022-07-29T20:41:14.235Z,96483.97
2022-07-29T20:43:41.686Z,96483.09
2022-07-29T20:46:11.382Z,96485.53
2022-07-29T20:48:40.792Z,96484.19
2022-07-29T20:51:11.329Z,96491.00
2022-07-29T20:53:43.083Z,96479.06
2022-07-29T20:56:12.350Z,96480.38
2022-07-29T20:58:40.882Z,96487.22
2022-07-29T21:04:04.611Z,96485.13
2022-07-29T21:06:34.676Z,96490.09
2022-07-29T21:09:06.541Z,96478.59
2022-07-29T21:11:43.385Z,96475.97
2022-07-29T21:14:33.368Z,96475.75
2022-07-29T21:17:01.686Z,96472.59
2022-07-29T21:19:28.696Z,96470.78
2022-07-29T21:21:55.384Z,96476.13
2022-07-29T21:24:22.718Z,96478.13
2022-07-29T21:27:11.074Z,96476.31
2022-07-29T21:29:36.757Z,96484.19
2022-07-29T21:32:03.670Z,96487.75
2022-07-29T21:34:31.082Z,96491.19
2022-07-29T21:36:58.466Z,96504.16
2022-07-29T21:39:25.218Z,96515.72
2022-07-29T21:41:51.838Z,96505.09
2022-07-29T21:44:20.987Z,96509.31
2022-07-29T21:46:49.002Z,96506.50
2022-07-29T21:49:16.837Z,96507.28
2022-07-29T21:51:43.778Z,96499.28
2022-07-29T21:54:10.430Z,96506.50
2022-07-29T21:56:37.958Z,96502.16
2022-07-29T21:59:10.427Z,96503.66
2022-07-29T22:01:40.046Z,96496.66
2022-07-29T22:04:10.395Z,96506.13
2022-07-29T22:06:39.447Z,96505.91
2022-07-29T22:09:07.964Z,96504.19
2022-07-29T22:11:36.878Z,96495.56
2022-07-29T22:14:05.620Z,96493.16
2022-07-29T22:16:33.485Z,96486.09
2022-07-29T22:19:03.731Z,96481.34
2022-07-29T22:21:33.050Z,96482.47
2022-07-29T22:24:04.379Z,96476.63
2022-07-29T22:26:32.190Z,96466.84
2022-07-29T22:29:02.047Z,96460.69
2022-07-29T22:31:29.046Z,96477.00
2022-07-29T22:33:59.146Z,96465.00
2022-07-29T22:36:27.108Z,96461.47
2022-07-29T22:38:54.967Z,96459.84
2022-07-29T22:41:24.804Z,96452.56
2022-07-29T22:43:53.843Z,96438.38
2022-07-29T22:46:21.796Z,96440.88
2022-07-29T22:48:49.907Z,96446.56
2022-07-29T22:51:17.558Z,96444.72
2022-07-29T22:53:47.092Z,96444.00
2022-07-29T22:56:14.370Z,96427.25
2022-07-29T22:58:42.641Z,96431.88
2022-07-29T23:01:11.084Z,96445.66
2022-07-29T23:03:39.346Z,96440.03
2022-07-29T23:06:10.085Z,96441.50
2022-07-29T23:08:37.371Z,96439.88
2022-07-29T23:11:04.897Z,96434.66
2022-07-29T23:13:32.591Z,96420.72
2022-07-29T23:15:59.309Z,96421.34
2022-07-29T23:18:26.011Z,96421.28
2022-07-29T23:20:53.500Z,96421.19
2022-07-29T23:23:20.300Z,96424.34
2022-07-29T23:25:46.977Z,96422.59
2022-07-29T23:28:14.310Z,96417.91
2022-07-29T23:30:41.604Z,96416.34
2022-07-29T23:33:08.358Z,96420.69
2022-07-29T23:35:35.661Z,96423.19
2022-07-29T23:38:02.996Z,96425.66
2022-07-29T23:40:29.772Z,96425.75
2022-07-29T23:42:56.566Z,96416.97
2022-07-29T23:45:23.487Z,96409.94
2022-07-29T23:48:09.674Z,96413.22
2022-07-29T23:50:36.658Z,96415.16
2022-07-29T23:53:04.431Z,96414.28
2022-07-29T23:55:37.497Z,96397.53
2022-07-29T23:58:06.229Z,96392.97
